sensor_id;sensor_type;location;lat;lon;timestamp;pressure;altitude;pressure_sealevel;temperature;humidity
73824;BME280;62154;54.914;73.444;2023-09-19T00:01:40;100511.47;;;9.86;100.00
73824;BME280;62154;54.914;73.444;2023-09-19T00:04:07;100514.91;;;9.88;100.00
73824;BME280;62154;54.914;73.444;2023-09-19T00:06:36;100507.22;;;9.90;100.00
73824;BME280;62154;54.914;73.444;2023-09-19T00:09:03;100508.94;;;9.91;100.00
73824;BME280;62154;54.914;73.444;2023-09-19T00:11:30;100516.63;;;9.89;100.00
73824;BME280;62154;54.914;73.444;2023-09-19T00:14:00;100510.66;;;9.86;100.00
73824;BME280;62154;54.914;73.444;2023-09-19T00:16:27;100504.69;;;9.82;100.00
73824;BME280;62154;54.914;73.444;2023-09-19T00:18:54;100506.78;;;9.80;100.00
73824;BME280;62154;54.914;73.444;2023-09-19T00:21:23;100506.16;;;9.78;100.00
73824;BME280;62154;54.914;73.444;2023-09-19T00:23:50;100509.34;;;9.75;100.00
73824;BME280;62154;54.914;73.444;2023-09-19T00:26:18;100500.41;;;9.73;100.00
73824;BME280;62154;54.914;73.444;2023-09-19T00:28:48;100506.59;;;9.68;100.00
73824;BME280;62154;54.914;73.444;2023-09-19T00:31:15;100502.31;;;9.66;100.00
73824;BME280;62154;54.914;73.444;2023-09-19T00:33:41;100505.72;;;9.68;100.00
73824;BME280;62154;54.914;73.444;2023-09-19T00:36:09;100506.81;;;9.67;100.00
73824;BME280;62154;54.914;73.444;2023-09-19T00:38:36;100511.25;;;9.68;100.00
73824;BME280;62154;54.914;73.444;2023-09-19T00:41:03;100514.22;;;9.66;100.00
73824;BME280;62154;54.914;73.444;2023-09-19T00:43:30;100507.63;;;9.67;100.00
73824;BME280;62154;54.914;73.444;2023-09-19T00:46:00;100507.84;;;9.66;100.00
73824;BME280;62154;54.914;73.444;2023-09-19T00:48:29;100514.44;;;9.65;100.00
73824;BME280;62154;54.914;73.444;2023-09-19T00:51:02;100513.19;;;9.67;100.00
73824;BME280;62154;54.914;73.444;2023-09-19T00:53:31;100510.19;;;9.69;100.00
73824;BME280;62154;54.914;73.444;2023-09-19T00:55:58;100512.56;;;9.72;100.00
73824;BME280;62154;54.914;73.444;2023-09-19T00:58:25;100515.31;;;9.72;100.00
73824;BME280;62154;54.914;73.444;2023-09-19T01:00:52;100511.47;;;9.66;100.00
73824;BME280;62154;54.914;73.444;2023-09-19T01:03:20;100520.41;;;9.61;100.00
73824;BME280;62154;54.914;73.444;2023-09-19T01:05:47;100518.72;;;9.60;100.00
73824;BME280;62154;54.914;73.444;2023-09-19T01:08:14;100521.47;;;9.60;100.00
73824;BME280;62154;54.914;73.444;2023-09-19T01:11:01;100516.56;;;9.62;100.00
73824;BME280;62154;54.914;73.444;2023-09-19T01:13:31;100523.81;;;9.63;100.00
73824;BME280;62154;54.914;73.444;2023-09-19T01:16:07;100523.19;;;9.61;100.00
73824;BME280;62154;54.914;73.444;2023-09-19T01:31:31;100515.09;;;9.67;100.00
73824;BME280;62154;54.914;73.444;2023-09-19T01:34:02;100515.09;;;9.67;100.00
73824;BME280;62154;54.914;73.444;2023-09-19T01:36:37;100516.38;;;9.71;100.00
73824;BME280;62154;54.914;73.444;2023-09-19T01:39:07;100508.94;;;9.78;100.00
73824;BME280;62154;54.914;73.444;2023-09-19T01:41:54;100510.66;;;9.86;100.00
73824;BME280;62154;54.914;73.444;2023-09-19T01:44:40;100505.94;;;9.93;100.00
73824;BME280;62154;54.914;73.444;2023-09-19T01:47:12;100499.13;;;10.02;100.00
73824;BME280;62154;54.914;73.444;2023-09-19T01:49:50;100502.09;;;10.14;100.00
73824;BME280;62154;54.914;73.444;2023-09-19T01:52:23;100500.38;;;10.26;100.00
73824;BME280;62154;54.914;73.444;2023-09-19T01:54:56;100499.75;;;10.38;100.00
73824;BME280;62154;54.914;73.444;2023-09-19T01:57:28;100495.69;;;10.47;100.00
73824;BME280;62154;54.914;73.444;2023-09-19T02:00:03;100495.25;;;10.57;100.00
73824;BME280;62154;54.914;73.444;2023-09-19T02:02:40;100505.44;;;10.70;100.00
73824;BME280;62154;54.914;73.444;2023-09-19T02:05:09;100502.00;;;10.81;100.00
73824;BME280;62154;54.914;73.444;2023-09-19T02:07:37;100503.66;;;10.89;100.00
73824;BME280;62154;54.914;73.444;2023-09-19T02:10:05;100498.72;;;10.98;100.00
73824;BME280;62154;54.914;73.444;2023-09-19T02:12:32;100496.56;;;11.06;100.00
73824;BME280;62154;54.914;73.444;2023-09-19T02:15:03;100505.88;;;11.19;100.00
73824;BME280;62154;54.914;73.444;2023-09-19T02:17:33;100504.97;;;11.32;100.00
73824;BME280;62154;54.914;73.444;2023-09-19T02:20:00;100502.13;;;11.45;100.00
73824;BME280;62154;54.914;73.444;2023-09-19T02:22:30;100501.41;;;11.56;100.00
73824;BME280;62154;54.914;73.444;2023-09-19T02:24:57;100499.59;;;11.69;100.00
73824;BME280;62154;54.914;73.444;2023-09-19T02:27:29;100504.41;;;11.80;100.00
73824;BME280;62154;54.914;73.444;2023-09-19T02:29:59;100500.06;;;11.91;100.00
73824;BME280;62154;54.914;73.444;2023-09-19T02:32:30;100497.44;;;12.03;100.00
73824;BME280;62154;54.914;73.444;2023-09-19T02:34:57;100502.72;;;12.11;100.00
73824;BME280;62154;54.914;73.444;2023-09-19T02:37:25;100504.13;;;12.20;100.00
73824;BME280;62154;54.914;73.444;2023-09-19T02:39:53;100507.22;;;12.31;100.00
73824;BME280;62154;54.914;73.444;2023-09-19T02:42:19;100506.72;;;12.40;100.00
73824;BME280;62154;54.914;73.444;2023-09-19T02:44:47;100499.53;;;12.51;100.00
73824;BME280;62154;54.914;73.444;2023-09-19T02:47:14;100493.69;;;12.60;100.00
73824;BME280;62154;54.914;73.444;2023-09-19T02:49:43;100504.03;;;12.71;100.00
73824;BME280;62154;54.914;73.444;2023-09-19T02:52:10;100502.19;;;12.83;100.00
73824;BME280;62154;54.914;73.444;2023-09-19T02:54:37;100502.00;;;12.97;100.00
73824;BME280;62154;54.914;73.444;2023-09-19T02:57:06;100502.28;;;13.07;100.00
73824;BME280;62154;54.914;73.444;2023-09-19T02:59:34;100501.50;;;13.18;100.00
73824;BME280;62154;54.914;73.444;2023-09-19T03:02:03;100508.84;;;13.31;100.00
73824;BME280;62154;54.914;73.444;2023-09-19T03:04:32;100501.91;;;13.41;100.00
73824;BME280;62154;54.914;73.444;2023-09-19T03:07:00;100504.72;;;13.52;100.00
73824;BME280;62154;54.914;73.444;2023-09-19T03:09:28;100504.97;;;13.63;100.00
73824;BME280;62154;54.914;73.444;2023-09-19T03:11:55;100505.28;;;13.73;100.00
73824;BME280;62154;54.914;73.444;2023-09-19T03:14:23;100508.53;;;13.82;100.00
73824;BME280;62154;54.914;73.444;2023-09-19T03:16:50;100516.97;;;13.94;100.00
73824;BME280;62154;54.914;73.444;2023-09-19T03:19:18;100522.53;;;14.06;100.00
73824;BME280;62154;54.914;73.444;2023-09-19T03:21:47;100513.84;;;14.14;100.00
73824;BME280;62154;54.914;73.444;2023-09-19T03:24:17;100513.47;;;14.22;100.00
73824;BME280;62154;54.914;73.444;2023-09-19T03:26:44;100509.84;;;14.33;100.00
73824;BME280;62154;54.914;73.444;2023-09-19T03:29:12;100510.06;;;14.44;100.00
73824;BME280;62154;54.914;73.444;2023-09-19T03:31:41;100516.25;;;14.58;100.00
73824;BME280;62154;54.914;73.444;2023-09-19T03:34:09;100518.22;;;14.69;100.00
73824;BME280;62154;54.914;73.444;2023-09-19T03:36:36;100507.06;;;14.81;100.00
73824;BME280;62154;54.914;73.444;2023-09-19T03:39:03;100516.00;;;14.95;99.18
73824;BME280;62154;54.914;73.444;2023-09-19T03:41:34;100517.94;;;15.06;99.02
73824;BME280;62154;54.914;73.444;2023-09-19T03:44:03;100522.38;;;15.19;99.31
73824;BME280;62154;54.914;73.444;2023-09-19T03:46:31;100527.19;;;15.36;99.54
73824;BME280;62154;54.914;73.444;2023-09-19T03:48:59;100524.44;;;15.53;98.69
73824;BME280;62154;54.914;73.444;2023-09-19T03:51:27;100527.03;;;15.71;97.60
73824;BME280;62154;54.914;73.444;2023-09-19T03:53:55;100528.19;;;15.87;96.88
73824;BME280;62154;54.914;73.444;2023-09-19T03:56:22;100524.31;;;16.05;95.58
73824;BME280;62154;54.914;73.444;2023-09-19T03:58:49;100522.94;;;16.25;95.58
73824;BME280;62154;54.914;73.444;2023-09-19T04:01:17;100510.88;;;16.41;94.67
73824;BME280;62154;54.914;73.444;2023-09-19T04:03:45;100522.91;;;16.59;93.87
73824;BME280;62154;54.914;73.444;2023-09-19T04:06:15;100521.47;;;16.73;91.09
73824;BME280;62154;54.914;73.444;2023-09-19T04:08:43;100519.63;;;16.84;90.29
73824;BME280;62154;54.914;73.444;2023-09-19T04:11:11;100514.03;;;17.01;91.50
73824;BME280;62154;54.914;73.444;2023-09-19T04:13:39;100509.19;;;17.19;90.38
73824;BME280;62154;54.914;73.444;2023-09-19T04:16:06;100518.09;;;17.38;90.96
73824;BME280;62154;54.914;73.444;2023-09-19T04:18:33;100511.03;;;17.57;90.52
73824;BME280;62154;54.914;73.444;2023-09-19T04:21:04;100509.28;;;17.79;89.75
73824;BME280;62154;54.914;73.444;2023-09-19T04:23:34;100510.94;;;18.02;89.60
73824;BME280;62154;54.914;73.444;2023-09-19T04:26:01;100508.88;;;18.24;88.42
73824;BME280;62154;54.914;73.444;2023-09-19T04:28:31;100502.56;;;18.45;86.98
73824;BME280;62154;54.914;73.444;2023-09-19T04:30:58;100510.53;;;18.63;85.67
73824;BME280;62154;54.914;73.444;2023-09-19T04:33:25;100503.66;;;18.81;85.96
73824;BME280;62154;54.914;73.444;2023-09-19T04:35:56;100508.56;;;19.01;85.26
73824;BME280;62154;54.914;73.444;2023-09-19T04:38:22;100497.94;;;19.19;83.62
73824;BME280;62154;54.914;73.444;2023-09-19T04:40:50;100500.53;;;19.36;83.43
73824;BME280;62154;54.914;73.444;2023-09-19T04:43:23;100496.06;;;19.50;81.61
73824;BME280;62154;54.914;73.444;2023-09-19T04:45:51;100503.13;;;19.63;81.84
73824;BME280;62154;54.914;73.444;2023-09-19T04:48:22;100508.50;;;19.75;80.45
73824;BME280;62154;54.914;73.444;2023-09-19T04:50:52;100497.28;;;19.85;79.93
73824;BME280;62154;54.914;73.444;2023-09-19T04:53:22;100497.59;;;19.94;77.81
73824;BME280;62154;54.914;73.444;2023-09-19T04:55:49;100495.88;;;20.03;78.18
73824;BME280;62154;54.914;73.444;2023-09-19T04:58:17;100491.41;;;20.18;78.18
73824;BME280;62154;54.914;73.444;2023-09-19T05:00:44;100488.56;;;20.28;76.57
73824;BME280;62154;54.914;73.444;2023-09-19T05:03:11;100490.25;;;20.40;74.66
73824;BME280;62154;54.914;73.444;2023-09-19T05:05:38;100489.38;;;20.44;70.76
73824;BME280;62154;54.914;73.444;2023-09-19T05:08:06;100482.91;;;20.54;74.07
73824;BME280;62154;54.914;73.444;2023-09-19T05:10:35;100485.69;;;20.64;73.14
73824;BME280;62154;54.914;73.444;2023-09-19T05:13:05;100486.56;;;20.75;73.38
73824;BME280;62154;54.914;73.444;2023-09-19T05:15:33;100489.91;;;20.88;72.95
73824;BME280;62154;54.914;73.444;2023-09-19T05:18:02;100485.34;;;20.97;70.43
73824;BME280;62154;54.914;73.444;2023-09-19T05:20:29;100472.91;;;21.08;69.79
73824;BME280;62154;54.914;73.444;2023-09-19T05:23:02;100482.16;;;21.14;69.13
73824;BME280;62154;54.914;73.444;2023-09-19T05:25:32;100481.56;;;21.22;69.78
73824;BME280;62154;54.914;73.444;2023-09-19T05:27:59;100474.19;;;21.31;67.61
73824;BME280;62154;54.914;73.444;2023-09-19T05:30:27;100473.25;;;21.46;68.13
73824;BME280;62154;54.914;73.444;2023-09-19T05:32:54;100470.69;;;21.55;68.06
73824;BME280;62154;54.914;73.444;2023-09-19T05:35:21;100477.97;;;21.66;67.63
73824;BME280;62154;54.914;73.444;2023-09-19T05:37:51;100471.13;;;21.78;68.40
73824;BME280;62154;54.914;73.444;2023-09-19T05:40:21;100472.16;;;21.87;64.86
73824;BME280;62154;54.914;73.444;2023-09-19T05:42:48;100476.59;;;21.98;67.21
73824;BME280;62154;54.914;73.444;2023-09-19T05:45:36;100473.47;;;22.00;64.14
73824;BME280;62154;54.914;73.444;2023-09-19T05:48:12;100469.22;;;22.03;63.95
73824;BME280;62154;54.914;73.444;2023-09-19T05:50:45;100464.69;;;22.07;63.99
73824;BME280;62154;54.914;73.444;2023-09-19T05:53:14;100465.78;;;22.11;62.09
73824;BME280;62154;54.914;73.444;2023-09-19T05:55:42;100456.69;;;22.14;62.79
73824;BME280;62154;54.914;73.444;2023-09-19T05:58:10;100458.59;;;22.24;64.31
73824;BME280;62154;54.914;73.444;2023-09-19T06:00:41;100462.72;;;22.37;64.02
73824;BME280;62154;54.914;73.444;2023-09-19T06:03:09;100450.78;;;22.45;63.03
73824;BME280;62154;54.914;73.444;2023-09-19T06:05:42;100460.59;;;22.53;59.14
73824;BME280;62154;54.914;73.444;2023-09-19T06:08:10;100455.19;;;22.56;60.69
73824;BME280;62154;54.914;73.444;2023-09-19T06:10:39;100449.19;;;22.63;59.50
73824;BME280;62154;54.914;73.444;2023-09-19T06:13:07;100449.94;;;22.69;60.79
73824;BME280;62154;54.914;73.444;2023-09-19T06:15:37;100452.19;;;22.72;60.43
73824;BME280;62154;54.914;73.444;2023-09-19T06:18:10;100445.97;;;22.70;58.48
73824;BME280;62154;54.914;73.444;2023-09-19T06:20:47;100446.53;;;22.72;59.67
73824;BME280;62154;54.914;73.444;2023-09-19T06:23:17;100448.81;;;22.70;57.86
73824;BME280;62154;54.914;73.444;2023-09-19T06:25:48;100447.13;;;22.69;59.05
73824;BME280;62154;54.914;73.444;2023-09-19T06:28:16;100445.47;;;22.68;58.08
73824;BME280;62154;54.914;73.444;2023-09-19T06:30:56;100435.88;;;22.63;58.10
73824;BME280;62154;54.914;73.444;2023-09-19T06:33:26;100441.59;;;22.58;57.72
73824;BME280;62154;54.914;73.444;2023-09-19T06:35:58;100441.59;;;22.58;58.27
73824;BME280;62154;54.914;73.444;2023-09-19T06:38:29;100434.84;;;22.54;56.84
73824;BME280;62154;54.914;73.444;2023-09-19T06:40:56;100442.78;;;22.52;55.85
73824;BME280;62154;54.914;73.444;2023-09-19T06:43:24;100433.72;;;22.55;57.29
73824;BME280;62154;54.914;73.444;2023-09-19T06:45:51;100442.19;;;22.55;57.90
73824;BME280;62154;54.914;73.444;2023-09-19T06:48:18;100423.50;;;22.59;57.44
73824;BME280;62154;54.914;73.444;2023-09-19T06:50:45;100423.75;;;22.63;56.81
73824;BME280;62154;54.914;73.444;2023-09-19T06:53:14;100421.47;;;22.65;56.76
73824;BME280;62154;54.914;73.444;2023-09-19T06:55:41;100427.38;;;22.63;54.22
73824;BME280;62154;54.914;73.444;2023-09-19T06:58:10;100429.69;;;22.61;55.25
73824;BME280;62154;54.914;73.444;2023-09-19T07:00:37;100417.53;;;22.61;55.61
73824;BME280;62154;54.914;73.444;2023-09-19T07:03:05;100409.59;;;22.63;55.31
73824;BME280;62154;54.914;73.444;2023-09-19T07:05:39;100409.00;;;22.66;55.02
73824;BME280;62154;54.914;73.444;2023-09-19T07:08:07;100413.00;;;22.65;52.02
73824;BME280;62154;54.914;73.444;2023-09-19T07:10:34;100400.75;;;22.70;54.00
73824;BME280;62154;54.914;73.444;2023-09-19T07:13:02;100408.09;;;22.71;54.36
73824;BME280;62154;54.914;73.444;2023-09-19T07:15:31;100400.00;;;22.64;53.79
73824;BME280;62154;54.914;73.444;2023-09-19T07:17:59;100392.97;;;22.61;54.81
73824;BME280;62154;54.914;73.444;2023-09-19T07:20:29;100395.22;;;22.59;54.67
73824;BME280;62154;54.914;73.444;2023-09-19T07:22:58;100388.44;;;22.60;54.29
73824;BME280;62154;54.914;73.444;2023-09-19T07:25:28;100397.47;;;22.62;54.18
73824;BME280;62154;54.914;73.444;2023-09-19T07:27:56;100383.88;;;22.64;52.21
73824;BME280;62154;54.914;73.444;2023-09-19T07:30:28;100385.56;;;22.66;51.46
73824;BME280;62154;54.914;73.444;2023-09-19T07:32:55;100384.66;;;22.70;53.29
73824;BME280;62154;54.914;73.444;2023-09-19T07:35:22;100378.69;;;22.72;52.71
73824;BME280;62154;54.914;73.444;2023-09-19T07:37:51;100375.81;;;22.77;53.11
73824;BME280;62154;54.914;73.444;2023-09-19T07:40:19;100367.25;;;22.82;52.23
73824;BME280;62154;54.914;73.444;2023-09-19T07:42:47;100366.19;;;22.78;50.09
73824;BME280;62154;54.914;73.444;2023-09-19T07:45:15;100360.53;;;22.78;50.31
73824;BME280;62154;54.914;73.444;2023-09-19T07:47:52;100368.38;;;22.81;50.59
73824;BME280;62154;54.914;73.444;2023-09-19T07:50:23;100354.19;;;22.86;50.74
73824;BME280;62154;54.914;73.444;2023-09-19T07:52:50;100350.75;;;22.89;50.85
73824;BME280;62154;54.914;73.444;2023-09-19T07:55:18;100354.66;;;22.93;50.61
73824;BME280;62154;54.914;73.444;2023-09-19T07:57:47;64066.41;;;-147.71;100.00
73824;BME280;62154;54.914;73.444;2023-09-19T08:00:24;64066.41;;;-147.71;100.00
73824;BME280;62154;54.914;73.444;2023-09-19T08:02:53;64066.41;;;-147.71;100.00
73824;BME280;62154;54.914;73.444;2023-09-19T08:05:27;64066.41;;;-147.71;100.00
73824;BME280;62154;54.914;73.444;2023-09-19T08:07:56;64066.41;;;-147.71;100.00
73824;BME280;62154;54.914;73.444;2023-09-19T08:10:23;64066.41;;;-147.71;100.00
73824;BME280;62154;54.914;73.444;2023-09-19T08:12:54;64066.41;;;-147.71;100.00
73824;BME280;62154;54.914;73.444;2023-09-19T08:15:25;64066.41;;;-147.71;100.00
73824;BME280;62154;54.914;73.444;2023-09-19T08:17:54;64066.41;;;-147.71;100.00
73824;BME280;62154;54.914;73.444;2023-09-19T08:20:26;64066.41;;;-147.71;100.00
73824;BME280;62154;54.914;73.444;2023-09-19T08:22:58;64066.41;;;-147.71;100.00
73824;BME280;62154;54.914;73.444;2023-09-19T08:25:26;64066.41;;;-147.71;100.00
73824;BME280;62154;54.914;73.444;2023-09-19T08:27:55;64066.41;;;-147.71;100.00
73824;BME280;62154;54.914;73.444;2023-09-19T08:30:28;64066.41;;;-147.71;100.00
73824;BME280;62154;54.914;73.444;2023-09-19T08:33:05;64066.41;;;-147.71;100.00
73824;BME280;62154;54.914;73.444;2023-09-19T08:35:48;64066.41;;;-147.71;100.00
73824;BME280;62154;54.914;73.444;2023-09-19T08:38:21;64066.41;;;-147.71;100.00
73824;BME280;62154;54.914;73.444;2023-09-19T08:40:49;64066.41;;;-147.71;100.00
73824;BME280;62154;54.914;73.444;2023-09-19T08:43:18;64066.41;;;-147.71;100.00
73824;BME280;62154;54.914;73.444;2023-09-19T08:45:49;64066.41;;;-147.71;100.00
73824;BME280;62154;54.914;73.444;2023-09-19T08:50:51;64066.41;;;-147.71;100.00
73824;BME280;62154;54.914;73.444;2023-09-19T08:53:27;64066.41;;;-147.71;100.00
73824;BME280;62154;54.914;73.444;2023-09-19T08:56:12;64066.41;;;-147.71;100.00
73824;BME280;62154;54.914;73.444;2023-09-19T08:58:48;64066.41;;;-147.71;100.00
73824;BME280;62154;54.914;73.444;2023-09-19T09:01:19;64066.41;;;-147.71;100.00
73824;BME280;62154;54.914;73.444;2023-09-19T09:03:53;64066.41;;;-147.71;100.00
73824;BME280;62154;54.914;73.444;2023-09-19T09:06:21;64066.41;;;-147.71;100.00
73824;BME280;62154;54.914;73.444;2023-09-19T09:08:51;64066.41;;;-147.71;100.00
73824;BME280;62154;54.914;73.444;2023-09-19T09:11:23;64066.41;;;-147.71;100.00
73824;BME280;62154;54.914;73.444;2023-09-19T09:14:02;64066.41;;;-147.71;100.00
73824;BME280;62154;54.914;73.444;2023-09-19T09:16:36;64066.41;;;-147.71;100.00
73824;BME280;62154;54.914;73.444;2023-09-19T09:19:07;64066.41;;;-147.71;100.00
73824;BME280;62154;54.914;73.444;2023-09-19T09:21:35;64066.41;;;-147.71;100.00
73824;BME280;62154;54.914;73.444;2023-09-19T09:26:54;100300.00;;;22.60;53.48
73824;BME280;62154;54.914;73.444;2023-09-19T09:35:09;64066.41;;;-147.71;100.00
73824;BME280;62154;54.914;73.444;2023-09-19T09:37:38;64066.41;;;-147.71;100.00
73824;BME280;62154;54.914;73.444;2023-09-19T09:40:11;64066.41;;;-147.71;100.00
73824;BME280;62154;54.914;73.444;2023-09-19T09:43:02;64066.41;;;-147.71;100.00
73824;BME280;62154;54.914;73.444;2023-09-19T09:45:32;64066.41;;;-147.71;100.00
73824;BME280;62154;54.914;73.444;2023-09-19T09:48:00;64066.41;;;-147.71;100.00
73824;BME280;62154;54.914;73.444;2023-09-19T09:50:48;64066.41;;;-147.71;100.00
73824;BME280;62154;54.914;73.444;2023-09-19T09:53:21;64066.41;;;-147.71;100.00
73824;BME280;62154;54.914;73.444;2023-09-19T09:56:01;64066.41;;;-147.71;100.00
73824;BME280;62154;54.914;73.444;2023-09-19T10:01:17;64066.41;;;-147.71;100.00
73824;BME280;62154;54.914;73.444;2023-09-19T10:03:58;64066.41;;;-147.71;100.00
73824;BME280;62154;54.914;73.444;2023-09-19T10:06:39;64066.41;;;-147.71;nan
73824;BME280;62154;54.914;73.444;2023-09-19T10:09:15;100261.91;;;22.76;53.13
73824;BME280;62154;54.914;73.444;2023-09-19T10:11:47;100265.31;;;22.73;52.99
73824;BME280;62154;54.914;73.444;2023-09-19T10:14:25;100263.13;;;22.70;52.80
73824;BME280;62154;54.914;73.444;2023-09-19T10:16:56;100271.44;;;22.61;52.71
73824;BME280;62154;54.914;73.444;2023-09-19T10:19:33;100261.41;;;22.50;53.27
73824;BME280;62154;54.914;73.444;2023-09-19T10:22:06;100260.44;;;22.36;52.66
73824;BME280;62154;54.914;73.444;2023-09-19T10:24:39;100253.84;;;22.21;53.22
73824;BME280;62154;54.914;73.444;2023-09-19T10:27:14;100256.81;;;22.11;53.50
73824;BME280;62154;54.914;73.444;2023-09-19T10:29:48;100257.19;;;22.04;54.16
73824;BME280;62154;54.914;73.444;2023-09-19T10:32:22;100260.06;;;21.99;53.60
73824;BME280;62154;54.914;73.444;2023-09-19T10:34:52;100253.94;;;21.92;53.63
73824;BME280;62154;54.914;73.444;2023-09-19T10:37:22;100252.25;;;21.91;54.11
73824;BME280;62154;54.914;73.444;2023-09-19T10:39:56;100259.31;;;21.88;54.26
73824;BME280;62154;54.914;73.444;2023-09-19T10:42:30;100261.59;;;21.86;54.38
73824;BME280;62154;54.914;73.444;2023-09-19T10:44:59;100249.22;;;21.82;54.51
73824;BME280;62154;54.914;73.444;2023-09-19T10:47:29;100249.84;;;21.79;54.70
73824;BME280;62154;54.914;73.444;2023-09-19T10:49:58;100241.44;;;21.74;54.56
73824;BME280;62154;54.914;73.444;2023-09-19T10:52:37;100251.09;;;21.67;54.57
73824;BME280;62154;54.914;73.444;2023-09-19T10:55:15;100236.72;;;21.64;54.79
73824;BME280;62154;54.914;73.444;2023-09-19T10:57:48;64066.41;;;-147.71;100.00
73824;BME280;62154;54.914;73.444;2023-09-19T11:00:19;64066.41;;;-147.71;100.00
73824;BME280;62154;54.914;73.444;2023-09-19T11:08:57;100234.47;;;21.31;55.76
73824;BME280;62154;54.914;73.444;2023-09-19T11:11:49;100226.09;;;21.21;55.87
73824;BME280;62154;54.914;73.444;2023-09-19T11:14:42;100237.19;;;21.12;56.31
73824;BME280;62154;54.914;73.444;2023-09-19T11:17:32;100231.88;;;21.06;56.46
73824;BME280;62154;54.914;73.444;2023-09-19T11:20:16;100236.69;;;21.00;56.59
73824;BME280;62154;54.914;73.444;2023-09-19T11:25:44;100235.66;;;20.91;56.75
73824;BME280;62154;54.914;73.444;2023-09-19T11:30:53;100232.56;;;20.87;57.50
73824;BME280;62154;54.914;73.444;2023-09-19T11:33:28;100220.78;;;20.85;57.58
73824;BME280;62154;54.914;73.444;2023-09-19T11:36:16;100222.44;;;20.86;57.81
73824;BME280;62154;54.914;73.444;2023-09-19T11:44:31;100223.81;;;20.89;58.17
73824;BME280;62154;54.914;73.444;2023-09-19T11:47:20;100233.13;;;20.89;58.06
73824;BME280;62154;54.914;73.444;2023-09-19T11:49:53;100223.56;;;20.90;58.73
73824;BME280;62154;54.914;73.444;2023-09-19T11:52:22;100213.66;;;20.93;58.28
73824;BME280;62154;54.914;73.444;2023-09-19T11:55:02;100227.19;;;20.91;58.45
73824;BME280;62154;54.914;73.444;2023-09-19T11:57:31;100223.56;;;20.90;59.08
73824;BME280;62154;54.914;73.444;2023-09-19T12:00:03;100219.03;;;20.89;59.06
73824;BME280;62154;54.914;73.444;2023-09-19T12:02:39;100222.19;;;20.82;59.14
73824;BME280;62154;54.914;73.444;2023-09-19T12:05:29;64066.41;;;-147.71;100.00
73824;BME280;62154;54.914;73.444;2023-09-19T12:08:16;100220.25;;;20.78;59.77
73824;BME280;62154;54.914;73.444;2023-09-19T12:10:45;100220.25;;;20.78;59.77
73824;BME280;62154;54.914;73.444;2023-09-19T12:13:41;64066.41;;;-147.71;100.00
73824;BME280;62154;54.914;73.444;2023-09-19T12:16:30;100217.56;;;20.57;60.58
73824;BME280;62154;54.914;73.444;2023-09-19T12:19:23;64066.41;;;-147.71;100.00
73824;BME280;62154;54.914;73.444;2023-09-19T12:21:54;64066.41;;;-147.71;100.00
73824;BME280;62154;54.914;73.444;2023-09-19T12:24:27;64066.41;;;-147.71;100.00
73824;BME280;62154;54.914;73.444;2023-09-19T12:27:00;100225.16;;;20.57;61.53
73824;BME280;62154;54.914;73.444;2023-09-19T12:29:51;100224.31;;;20.56;62.21
73824;BME280;62154;54.914;73.444;2023-09-19T12:32:40;100226.00;;;20.57;62.24
73824;BME280;62154;54.914;73.444;2023-09-19T12:38:03;64066.41;;;-147.71;100.00
73824;BME280;62154;54.914;73.444;2023-09-19T12:40:36;64066.41;;;-147.71;100.00
73824;BME280;62154;54.914;73.444;2023-09-19T12:43:10;64066.41;;;-147.71;100.00
73824;BME280;62154;54.914;73.444;2023-09-19T12:45:43;64066.41;;;-147.71;100.00
73824;BME280;62154;54.914;73.444;2023-09-19T12:48:21;64066.41;;;-147.71;100.00
73824;BME280;62154;54.914;73.444;2023-09-19T12:51:08;64066.41;;;-147.71;100.00
73824;BME280;62154;54.914;73.444;2023-09-19T12:53:45;64066.41;;;-147.71;100.00
73824;BME280;62154;54.914;73.444;2023-09-19T12:56:20;64066.41;;;-147.71;100.00
73824;BME280;62154;54.914;73.444;2023-09-19T12:58:59;64066.41;;;-147.71;100.00
73824;BME280;62154;54.914;73.444;2023-09-19T13:01:33;64066.41;;;-147.71;100.00
73824;BME280;62154;54.914;73.444;2023-09-19T13:06:42;64066.41;;;-147.71;100.00
73824;BME280;62154;54.914;73.444;2023-09-19T13:09:10;64066.41;;;-147.71;100.00
73824;BME280;62154;54.914;73.444;2023-09-19T13:11:38;64066.41;;;-147.71;100.00
73824;BME280;62154;54.914;73.444;2023-09-19T13:17:04;64066.41;;;-147.71;100.00
73824;BME280;62154;54.914;73.444;2023-09-19T13:19:41;64066.41;;;-147.71;100.00
73824;BME280;62154;54.914;73.444;2023-09-19T13:24:57;64066.41;;;-147.71;100.00
73824;BME280;62154;54.914;73.444;2023-09-19T13:27:28;64066.41;;;-147.71;100.00
73824;BME280;62154;54.914;73.444;2023-09-19T13:29:58;64066.41;;;-147.71;100.00
73824;BME280;62154;54.914;73.444;2023-09-19T13:32:26;64066.41;;;-147.71;100.00
73824;BME280;62154;54.914;73.444;2023-09-19T13:34:56;64066.41;;;-147.71;100.00
73824;BME280;62154;54.914;73.444;2023-09-19T13:37:24;64066.41;;;-147.71;100.00
73824;BME280;62154;54.914;73.444;2023-09-19T13:39:55;64066.41;;;-147.71;100.00
73824;BME280;62154;54.914;73.444;2023-09-19T13:42:24;64066.41;;;-147.71;100.00
73824;BME280;62154;54.914;73.444;2023-09-19T13:44:51;64066.41;;;-147.71;100.00
73824;BME280;62154;54.914;73.444;2023-09-19T13:47:19;64066.41;;;-147.71;100.00
73824;BME280;62154;54.914;73.444;2023-09-19T13:49:54;64066.41;;;-147.71;100.00